sensor_id;sensor_type;location;lat;lon;timestamp;pressure;altitude;pressure_sealevel;temperature;humidity
4085;BME280;2057;50.858;6.572;2022-07-10T00:00:09;101435.38;;;15.10;80.92
4085;BME280;2057;50.858;6.572;2022-07-10T00:02:36;101433.09;;;14.97;81.39
4085;BME280;2057;50.858;6.572;2022-07-10T00:05:01;101420.66;;;14.86;82.10
4085;BME280;2057;50.858;6.572;2022-07-10T00:07:26;101423.88;;;15.00;81.94
4085;BME280;2057;50.858;6.572;2022-07-10T00:09:52;101427.59;;;15.07;81.27
4085;BME280;2057;50.858;6.572;2022-07-10T00:12:17;101424.94;;;15.05;81.71
4085;BME280;2057;50.858;6.572;2022-07-10T00:14:43;101420.81;;;14.89;82.98
4085;BME280;2057;50.858;6.572;2022-07-10T00:17:08;101416.47;;;15.06;81.83
4085;BME280;2057;50.858;6.572;2022-07-10T00:19:33;101421.03;;;14.94;82.45
4085;BME280;2057;50.858;6.572;2022-07-10T00:21:59;101413.59;;;14.81;83.12
4085;BME280;2057;50.858;6.572;2022-07-10T00:24:24;101416.84;;;14.96;82.37
4085;BME280;2057;50.858;6.572;2022-07-10T00:26:49;101408.59;;;15.02;82.33
4085;BME280;2057;50.858;6.572;2022-07-10T00:29:15;101418.38;;;14.93;83.30
4085;BME280;2057;50.858;6.572;2022-07-10T00:31:41;101428.03;;;14.98;82.14
4085;BME280;2057;50.858;6.572;2022-07-10T00:34:06;101422.38;;;14.86;82.96
4085;BME280;2057;50.858;6.572;2022-07-10T00:36:31;101427.09;;;14.78;83.33
4085;BME280;2057;50.858;6.572;2022-07-10T00:38:57;101417.19;;;14.66;83.67
4085;BME280;2057;50.858;6.572;2022-07-10T00:41:22;101413.34;;;14.58;84.79
4085;BME280;2057;50.858;6.572;2022-07-10T00:43:59;101412.41;;;14.56;84.67
4085;BME280;2057;50.858;6.572;2022-07-10T00:46:26;101422.47;;;14.53;85.50
4085;BME280;2057;50.858;6.572;2022-07-10T00:48:52;101419.69;;;14.30;87.21
4085;BME280;2057;50.858;6.572;2022-07-10T00:51:21;101409.03;;;14.57;85.38
4085;BME280;2057;50.858;6.572;2022-07-10T00:53:48;101406.63;;;14.42;85.47
4085;BME280;2057;50.858;6.572;2022-07-10T00:56:16;101408.44;;;14.44;85.40
4085;BME280;2057;50.858;6.572;2022-07-10T00:58:43;101411.09;;;14.46;86.72
4085;BME280;2057;50.858;6.572;2022-07-10T01:01:09;101408.72;;;14.15;86.40
4085;BME280;2057;50.858;6.572;2022-07-10T01:03:35;101413.78;;;13.96;87.95
4085;BME280;2057;50.858;6.572;2022-07-10T01:06:00;101403.53;;;13.78;88.75
4085;BME280;2057;50.858;6.572;2022-07-10T01:08:27;101407.19;;;13.67;89.82
4085;BME280;2057;50.858;6.572;2022-07-10T01:10:52;101403.81;;;13.85;89.84
4085;BME280;2057;50.858;6.572;2022-07-10T01:13:18;101391.19;;;14.04;88.71
4085;BME280;2057;50.858;6.572;2022-07-10T01:15:44;101383.19;;;14.15;88.66
4085;BME280;2057;50.858;6.572;2022-07-10T01:18:10;101383.63;;;14.24;88.17
4085;BME280;2057;50.858;6.572;2022-07-10T01:20:35;101392.16;;;14.06;88.85
4085;BME280;2057;50.858;6.572;2022-07-10T01:23:01;101381.78;;;14.03;89.15
4085;BME280;2057;50.858;6.572;2022-07-10T01:25:27;101379.09;;;14.18;88.66
4085;BME280;2057;50.858;6.572;2022-07-10T01:27:53;101375.34;;;14.11;88.71
4085;BME280;2057;50.858;6.572;2022-07-10T01:30:19;101379.56;;;13.93;89.27
4085;BME280;2057;50.858;6.572;2022-07-10T01:32:46;101374.09;;;14.03;90.47
4085;BME280;2057;50.858;6.572;2022-07-10T01:35:12;101366.19;;;13.80;90.40
4085;BME280;2057;50.858;6.572;2022-07-10T01:37:41;101365.53;;;13.85;91.00
4085;BME280;2057;50.858;6.572;2022-07-10T01:40:07;101360.06;;;13.77;91.52
4085;BME280;2057;50.858;6.572;2022-07-10T01:42:33;101361.16;;;13.82;90.37
4085;BME280;2057;50.858;6.572;2022-07-10T01:44:59;101359.47;;;13.99;89.13
4085;BME280;2057;50.858;6.572;2022-07-10T01:47:25;101366.94;;;13.96;90.09
4085;BME280;2057;50.858;6.572;2022-07-10T01:49:53;101362.47;;;14.08;89.77
4085;BME280;2057;50.858;6.572;2022-07-10T01:52:21;101360.78;;;14.27;89.79
4085;BME280;2057;50.858;6.572;2022-07-10T01:54:48;101372.16;;;14.16;88.96
4085;BME280;2057;50.858;6.572;2022-07-10T01:57:13;101383.38;;;14.01;89.97
4085;BME280;2057;50.858;6.572;2022-07-10T01:59:39;101372.13;;;13.98;90.23
4085;BME280;2057;50.858;6.572;2022-07-10T02:02:05;101371.09;;;13.94;90.88
4085;BME280;2057;50.858;6.572;2022-07-10T02:04:31;101361.50;;;14.06;90.01
4085;BME280;2057;50.858;6.572;2022-07-10T02:07:13;101365.03;;;13.92;90.18
4085;BME280;2057;50.858;6.572;2022-07-10T02:09:39;101362.19;;;13.86;90.93
4085;BME280;2057;50.858;6.572;2022-07-10T02:12:09;101358.06;;;14.06;90.45
4085;BME280;2057;50.858;6.572;2022-07-10T02:14:35;101362.94;;;14.01;91.06
4085;BME280;2057;50.858;6.572;2022-07-10T02:17:01;101365.66;;;14.04;90.12
4085;BME280;2057;50.858;6.572;2022-07-10T02:19:27;101353.09;;;14.27;89.48
4085;BME280;2057;50.858;6.572;2022-07-10T02:21:52;101354.69;;;14.07;90.23
4085;BME280;2057;50.858;6.572;2022-07-10T02:24:18;101355.66;;;13.91;91.61
4085;BME280;2057;50.858;6.572;2022-07-10T02:26:44;101349.72;;;13.92;91.41
4085;BME280;2057;50.858;6.572;2022-07-10T02:29:09;101349.53;;;14.05;90.46
4085;BME280;2057;50.858;6.572;2022-07-10T02:31:35;101356.16;;;14.02;90.52
4085;BME280;2057;50.858;6.572;2022-07-10T02:34:06;101358.34;;;13.94;90.98
4085;BME280;2057;50.858;6.572;2022-07-10T02:36:32;101352.59;;;14.16;90.70
4085;BME280;2057;50.858;6.572;2022-07-10T02:38:58;101344.59;;;14.08;90.45
4085;BME280;2057;50.858;6.572;2022-07-10T02:41:23;101347.25;;;14.11;90.24
4085;BME280;2057;50.858;6.572;2022-07-10T02:43:49;101352.53;;;14.15;90.55
4085;BME280;2057;50.858;6.572;2022-07-10T02:46:14;101350.50;;;14.07;90.63
4085;BME280;2057;50.858;6.572;2022-07-10T02:48:40;101351.81;;;14.17;91.24
4085;BME280;2057;50.858;6.572;2022-07-10T02:51:05;101349.31;;;14.01;91.26
4085;BME280;2057;50.858;6.572;2022-07-10T02:53:31;101342.66;;;14.04;90.95
4085;BME280;2057;50.858;6.572;2022-07-10T02:55:56;101345.94;;;14.02;90.83
4085;BME280;2057;50.858;6.572;2022-07-10T02:58:22;101348.34;;;13.99;92.56
4085;BME280;2057;50.858;6.572;2022-07-10T03:00:47;101345.38;;;14.07;91.76
4085;BME280;2057;50.858;6.572;2022-07-10T03:03:13;101350.56;;;13.74;92.97
4085;BME280;2057;50.858;6.572;2022-07-10T03:05:39;101346.31;;;14.09;92.93
4085;BME280;2057;50.858;6.572;2022-07-10T03:08:04;101346.19;;;14.06;92.45
4085;BME280;2057;50.858;6.572;2022-07-10T03:10:29;101347.56;;;14.18;91.63
4085;BME280;2057;50.858;6.572;2022-07-10T03:12:55;101347.88;;;14.24;91.49
4085;BME280;2057;50.858;6.572;2022-07-10T03:15:20;101348.31;;;14.33;91.84
4085;BME280;2057;50.858;6.572;2022-07-10T03:17:45;101352.47;;;14.31;91.51
4085;BME280;2057;50.858;6.572;2022-07-10T03:20:11;101349.84;;;14.30;91.26
4085;BME280;2057;50.858;6.572;2022-07-10T03:22:37;101356.75;;;14.14;91.11
4085;BME280;2057;50.858;6.572;2022-07-10T03:25:03;101353.69;;;14.03;93.03
4085;BME280;2057;50.858;6.572;2022-07-10T03:27:28;101360.09;;;13.95;92.36
4085;BME280;2057;50.858;6.572;2022-07-10T03:29:53;101353.38;;;13.97;92.02
4085;BME280;2057;50.858;6.572;2022-07-10T03:32:19;101355.97;;;13.80;93.50
4085;BME280;2057;50.858;6.572;2022-07-10T03:34:44;101351.78;;;13.99;91.88
4085;BME280;2057;50.858;6.572;2022-07-10T03:37:09;101353.69;;;14.03;92.21
4085;BME280;2057;50.858;6.572;2022-07-10T03:39:35;101351.94;;;14.02;92.12
4085;BME280;2057;50.858;6.572;2022-07-10T03:42:00;101349.00;;;13.94;92.98
4085;BME280;2057;50.858;6.572;2022-07-10T03:44:26;101348.72;;;14.06;92.54
4085;BME280;2057;50.858;6.572;2022-07-10T03:46:51;101342.44;;;14.18;92.65
4085;BME280;2057;50.858;6.572;2022-07-10T03:49:16;101347.88;;;14.24;90.90
4085;BME280;2057;50.858;6.572;2022-07-10T03:51:43;101343.91;;;14.31;89.88
4085;BME280;2057;50.858;6.572;2022-07-10T03:54:08;101342.66;;;14.22;90.26
4085;BME280;2057;50.858;6.572;2022-07-10T03:56:33;101344.06;;;14.16;90.50
4085;BME280;2057;50.858;6.572;2022-07-10T03:59:17;101348.97;;;14.11;91.67
4085;BME280;2057;50.858;6.572;2022-07-10T04:01:43;101343.75;;;14.09;92.34
4085;BME280;2057;50.858;6.572;2022-07-10T04:04:09;101353.16;;;14.10;92.46
4085;BME280;2057;50.858;6.572;2022-07-10T04:06:34;101343.19;;;14.15;92.33
4085;BME280;2057;50.858;6.572;2022-07-10T04:09:03;101340.34;;;13.91;93.85
4085;BME280;2057;50.858;6.572;2022-07-10T04:11:29;101345.13;;;13.85;93.79
4085;BME280;2057;50.858;6.572;2022-07-10T04:13:54;101341.19;;;13.91;92.97
4085;BME280;2057;50.858;6.572;2022-07-10T04:16:20;101344.38;;;14.04;94.26
4085;BME280;2057;50.858;6.572;2022-07-10T04:18:45;101346.84;;;14.20;93.23
4085;BME280;2057;50.858;6.572;2022-07-10T04:21:11;101349.81;;;14.11;92.76
4085;BME280;2057;50.858;6.572;2022-07-10T04:23:36;101348.84;;;14.09;93.54
4085;BME280;2057;50.858;6.572;2022-07-10T04:26:02;101345.38;;;14.07;93.43
4085;BME280;2057;50.858;6.572;2022-07-10T04:28:27;101350.72;;;14.12;93.57
4085;BME280;2057;50.858;6.572;2022-07-10T04:30:52;101357.06;;;14.20;94.19
4085;BME280;2057;50.858;6.572;2022-07-10T04:33:19;101360.19;;;14.15;93.43
4085;BME280;2057;50.858;6.572;2022-07-10T04:35:44;101352.59;;;14.52;91.97
4085;BME280;2057;50.858;6.572;2022-07-10T04:38:10;101353.25;;;14.48;91.58
4085;BME280;2057;50.858;6.572;2022-07-10T04:40:35;101350.84;;;14.15;94.09
4085;BME280;2057;50.858;6.572;2022-07-10T04:43:01;101355.53;;;14.24;92.81
4085;BME280;2057;50.858;6.572;2022-07-10T04:45:26;101356.69;;;14.12;93.70
4085;BME280;2057;50.858;6.572;2022-07-10T04:47:51;101350.78;;;14.32;92.23
4085;BME280;2057;50.858;6.572;2022-07-10T04:50:17;101364.94;;;14.25;91.38
4085;BME280;2057;50.858;6.572;2022-07-10T04:52:42;101360.72;;;14.07;93.38
4085;BME280;2057;50.858;6.572;2022-07-10T04:55:08;101364.19;;;14.46;90.93
4085;BME280;2057;50.858;6.572;2022-07-10T04:57:33;101360.75;;;14.63;90.73
4085;BME280;2057;50.858;6.572;2022-07-10T04:59:59;101362.75;;;14.69;89.12
4085;BME280;2057;50.858;6.572;2022-07-10T05:02:24;101359.34;;;14.68;90.24
4085;BME280;2057;50.858;6.572;2022-07-10T05:04:50;101363.66;;;14.69;90.39
4085;BME280;2057;50.858;6.572;2022-07-10T05:07:15;101356.44;;;14.62;91.39
4085;BME280;2057;50.858;6.572;2022-07-10T05:09:41;101359.09;;;14.64;90.83
4085;BME280;2057;50.858;6.572;2022-07-10T05:12:06;101367.03;;;14.68;90.97
4085;BME280;2057;50.858;6.572;2022-07-10T05:14:32;101365.66;;;14.58;90.75
4085;BME280;2057;50.858;6.572;2022-07-10T05:16:57;101366.25;;;14.53;92.10
4085;BME280;2057;50.858;6.572;2022-07-10T05:19:23;101365.53;;;14.55;91.03
4085;BME280;2057;50.858;6.572;2022-07-10T05:21:48;101367.97;;;14.18;92.19
4085;BME280;2057;50.858;6.572;2022-07-10T05:24:14;101368.00;;;14.54;91.61
4085;BME280;2057;50.858;6.572;2022-07-10T05:26:39;101364.91;;;14.61;90.15
4085;BME280;2057;50.858;6.572;2022-07-10T05:29:04;101359.97;;;14.64;90.68
4085;BME280;2057;50.858;6.572;2022-07-10T05:31:30;101362.66;;;14.49;91.75
4085;BME280;2057;50.858;6.572;2022-07-10T05:33:55;101370.66;;;14.55;90.54
4085;BME280;2057;50.858;6.572;2022-07-10T05:36:20;101366.69;;;14.62;91.06
4085;BME280;2057;50.858;6.572;2022-07-10T05:38:46;101375.25;;;14.63;90.11
4085;BME280;2057;50.858;6.572;2022-07-10T05:41:11;101372.47;;;14.76;90.38
4085;BME280;2057;50.858;6.572;2022-07-10T05:43:37;101374.00;;;14.90;89.15
4085;BME280;2057;50.858;6.572;2022-07-10T05:46:02;101366.75;;;15.00;87.72
4085;BME280;2057;50.858;6.572;2022-07-10T05:48:28;101372.09;;;14.86;88.46
4085;BME280;2057;50.858;6.572;2022-07-10T05:50:53;101378.03;;;14.67;90.20
4085;BME280;2057;50.858;6.572;2022-07-10T05:53:19;101375.03;;;14.76;90.00
4085;BME280;2057;50.858;6.572;2022-07-10T05:55:46;101369.91;;;14.94;89.23
4085;BME280;2057;50.858;6.572;2022-07-10T05:58:13;101370.81;;;14.96;88.36
4085;BME280;2057;50.858;6.572;2022-07-10T06:00:38;101371.44;;;15.10;88.35
4085;BME280;2057;50.858;6.572;2022-07-10T06:03:03;101368.28;;;15.35;87.30
4085;BME280;2057;50.858;6.572;2022-07-10T06:05:29;101368.75;;;15.07;87.46
4085;BME280;2057;50.858;6.572;2022-07-10T06:07:54;101369.38;;;15.21;86.79
4085;BME280;2057;50.858;6.572;2022-07-10T06:10:20;101369.97;;;15.15;86.50
4085;BME280;2057;50.858;6.572;2022-07-10T06:12:45;101378.28;;;15.29;86.90
4085;BME280;2057;50.858;6.572;2022-07-10T06:15:10;101373.56;;;15.39;86.21
4085;BME280;2057;50.858;6.572;2022-07-10T06:17:36;101368.44;;;15.39;86.17
4085;BME280;2057;50.858;6.572;2022-07-10T06:20:02;101375.28;;;15.40;85.99
4085;BME280;2057;50.858;6.572;2022-07-10T06:22:28;101377.25;;;15.26;86.82
4085;BME280;2057;50.858;6.572;2022-07-10T06:25:04;101375.53;;;15.65;85.41
4085;BME280;2057;50.858;6.572;2022-07-10T06:27:31;101386.84;;;15.71;85.12
4085;BME280;2057;50.858;6.572;2022-07-10T06:29:56;101388.44;;;15.87;85.33
4085;BME280;2057;50.858;6.572;2022-07-10T06:32:22;101382.50;;;15.68;85.00
4085;BME280;2057;50.858;6.572;2022-07-10T06:34:47;101391.47;;;15.79;85.22
4085;BME280;2057;50.858;6.572;2022-07-10T06:37:13;101394.75;;;15.36;86.04
4085;BME280;2057;50.858;6.572;2022-07-10T06:39:38;101395.53;;;14.96;89.04
4085;BME280;2057;50.858;6.572;2022-07-10T06:42:05;101400.09;;;15.21;88.51
4085;BME280;2057;50.858;6.572;2022-07-10T06:44:31;101400.09;;;15.21;87.52
4085;BME280;2057;50.858;6.572;2022-07-10T06:46:57;101398.06;;;15.53;85.98
4085;BME280;2057;50.858;6.572;2022-07-10T06:49:42;101404.38;;;15.61;86.51
4085;BME280;2057;50.858;6.572;2022-07-10T06:52:08;101400.63;;;15.33;86.20
4085;BME280;2057;50.858;6.572;2022-07-10T06:54:34;101388.63;;;15.32;85.88
4085;BME280;2057;50.858;6.572;2022-07-10T06:57:00;101395.50;;;15.33;86.73
4085;BME280;2057;50.858;6.572;2022-07-10T06:59:25;101395.22;;;15.27;87.41
4085;BME280;2057;50.858;6.572;2022-07-10T07:01:51;101403.78;;;15.08;87.66
4085;BME280;2057;50.858;6.572;2022-07-10T07:04:16;101409.91;;;15.12;88.91
4085;BME280;2057;50.858;6.572;2022-07-10T07:06:41;101399.53;;;15.09;89.43
4085;BME280;2057;50.858;6.572;2022-07-10T07:09:07;101400.34;;;15.27;88.60
4085;BME280;2057;50.858;6.572;2022-07-10T07:11:32;101403.69;;;15.65;87.29
4085;BME280;2057;50.858;6.572;2022-07-10T07:13:57;101402.63;;;15.80;87.54
4085;BME280;2057;50.858;6.572;2022-07-10T07:16:23;101405.84;;;15.76;85.79
4085;BME280;2057;50.858;6.572;2022-07-10T07:19:03;101400.22;;;15.63;85.89
4085;BME280;2057;50.858;6.572;2022-07-10T07:21:32;101404.19;;;15.57;86.67
4085;BME280;2057;50.858;6.572;2022-07-10T07:24:17;101411.31;;;15.64;86.87
4085;BME280;2057;50.858;6.572;2022-07-10T07:26:46;101410.16;;;15.57;86.96
4085;BME280;2057;50.858;6.572;2022-07-10T07:29:15;101401.78;;;15.60;86.87
4085;BME280;2057;50.858;6.572;2022-07-10T07:31:41;101396.97;;;15.48;87.49
4085;BME280;2057;50.858;6.572;2022-07-10T07:34:06;101402.88;;;15.66;86.03
4085;BME280;2057;50.858;6.572;2022-07-10T07:36:32;101402.66;;;15.81;85.61
4085;BME280;2057;50.858;6.572;2022-07-10T07:38:57;101399.13;;;15.97;84.23
4085;BME280;2057;50.858;6.572;2022-07-10T07:41:23;101394.78;;;15.96;85.12
4085;BME280;2057;50.858;6.572;2022-07-10T07:43:49;101395.75;;;15.79;84.39
4085;BME280;2057;50.858;6.572;2022-07-10T07:46:14;101397.78;;;15.86;84.39
4085;BME280;2057;50.858;6.572;2022-07-10T07:48:40;101384.94;;;16.06;83.61
4085;BME280;2057;50.858;6.572;2022-07-10T07:51:05;101384.94;;;16.06;83.42
4085;BME280;2057;50.858;6.572;2022-07-10T07:53:31;101396.38;;;16.14;82.71
4085;BME280;2057;50.858;6.572;2022-07-10T07:55:56;101389.63;;;16.16;82.03
4085;BME280;2057;50.858;6.572;2022-07-10T07:58:22;101404.34;;;16.22;82.03
4085;BME280;2057;50.858;6.572;2022-07-10T08:00:47;101391.84;;;16.29;82.08
4085;BME280;2057;50.858;6.572;2022-07-10T08:03:12;101388.97;;;16.00;81.52
4085;BME280;2057;50.858;6.572;2022-07-10T08:05:38;101393.81;;;16.14;81.58
4085;BME280;2057;50.858;6.572;2022-07-10T08:08:03;101387.59;;;16.30;78.78
4085;BME280;2057;50.858;6.572;2022-07-10T08:10:34;101376.66;;;16.34;79.45
4085;BME280;2057;50.858;6.572;2022-07-10T08:13:00;101365.41;;;16.30;79.83
4085;BME280;2057;50.858;6.572;2022-07-10T08:15:25;101379.81;;;16.27;78.92
4085;BME280;2057;50.858;6.572;2022-07-10T08:17:53;101368.13;;;16.34;77.83
4085;BME280;2057;50.858;6.572;2022-07-10T08:20:18;101371.53;;;16.34;77.50
4085;BME280;2057;50.858;6.572;2022-07-10T08:22:45;101372.41;;;16.56;76.96
4085;BME280;2057;50.858;6.572;2022-07-10T08:25:11;101380.50;;;16.67;77.62
4085;BME280;2057;50.858;6.572;2022-07-10T08:27:37;101370.06;;;16.62;77.29
4085;BME280;2057;50.858;6.572;2022-07-10T08:30:04;101376.75;;;16.58;78.19
4085;BME280;2057;50.858;6.572;2022-07-10T08:32:30;101382.19;;;16.89;78.15
4085;BME280;2057;50.858;6.572;2022-07-10T08:34:55;101378.63;;;17.08;75.89
4085;BME280;2057;50.858;6.572;2022-07-10T08:37:20;101368.56;;;16.90;74.85
4085;BME280;2057;50.858;6.572;2022-07-10T08:39:46;101369.03;;;17.02;76.54
4085;BME280;2057;50.858;6.572;2022-07-10T08:42:12;101373.44;;;17.31;76.70
4085;BME280;2057;50.858;6.572;2022-07-10T08:44:38;101366.84;;;17.62;75.88
4085;BME280;2057;50.858;6.572;2022-07-10T08:47:04;101370.34;;;17.64;73.93
4085;BME280;2057;50.858;6.572;2022-07-10T08:49:31;101376.00;;;17.79;74.32
4085;BME280;2057;50.858;6.572;2022-07-10T08:54:32;101367.25;;;17.74;75.77
4085;BME280;2057;50.858;6.572;2022-07-10T08:57:01;101373.59;;;17.84;75.20
4085;BME280;2057;50.858;6.572;2022-07-10T08:59:27;101372.63;;;18.06;74.30
4085;BME280;2057;50.858;6.572;2022-07-10T09:01:53;101371.16;;;17.88;75.57
4085;BME280;2057;50.858;6.572;2022-07-10T09:04:21;101361.59;;;18.10;74.38
4085;BME280;2057;50.858;6.572;2022-07-10T09:06:48;101362.44;;;18.09;73.85
4085;BME280;2057;50.858;6.572;2022-07-10T09:09:13;101358.13;;;18.36;73.50
4085;BME280;2057;50.858;6.572;2022-07-10T09:11:40;101361.31;;;18.56;73.09
4085;BME280;2057;50.858;6.572;2022-07-10T09:14:10;101356.66;;;18.16;71.79
4085;BME280;2057;50.858;6.572;2022-07-10T09:16:41;101350.81;;;17.95;74.61
4085;BME280;2057;50.858;6.572;2022-07-10T09:19:27;101352.88;;;17.29;75.89
4085;BME280;2057;50.858;6.572;2022-07-10T09:22:13;101348.09;;;17.90;75.77
4085;BME280;2057;50.858;6.572;2022-07-10T09:24:45;101356.97;;;17.74;74.62
4085;BME280;2057;50.858;6.572;2022-07-10T09:27:15;101347.09;;;17.86;74.83
4085;BME280;2057;50.858;6.572;2022-07-10T09:29:49;101354.19;;;17.42;75.92
4085;BME280;2057;50.858;6.572;2022-07-10T09:32:17;101351.78;;;17.72;75.13
4085;BME280;2057;50.858;6.572;2022-07-10T09:34:44;101349.56;;;17.58;75.34
4085;BME280;2057;50.858;6.572;2022-07-10T09:37:26;101344.44;;;17.58;75.97
4085;BME280;2057;50.858;6.572;2022-07-10T09:40:02;101353.47;;;17.46;76.02
4085;BME280;2057;50.858;6.572;2022-07-10T09:42:37;101348.09;;;17.40;77.22
4085;BME280;2057;50.858;6.572;2022-07-10T09:47:41;101348.59;;;17.30;76.86
4085;BME280;2057;50.858;6.572;2022-07-10T09:53:11;101347.50;;;17.47;76.84
4085;BME280;2057;50.858;6.572;2022-07-10T09:55:37;101343.56;;;17.57;77.62
4085;BME280;2057;50.858;6.572;2022-07-10T09:58:04;101350.50;;;17.60;76.30
4085;BME280;2057;50.858;6.572;2022-07-10T10:00:34;101354.50;;;17.51;76.85
4085;BME280;2057;50.858;6.572;2022-07-10T10:03:02;101359.63;;;17.27;77.44
4085;BME280;2057;50.858;6.572;2022-07-10T10:08:09;101360.25;;;17.44;78.30
4085;BME280;2057;50.858;6.572;2022-07-10T10:10:38;101362.50;;;17.35;78.95
4085;BME280;2057;50.858;6.572;2022-07-10T10:13:07;101364.13;;;17.33;78.33
4085;BME280;2057;50.858;6.572;2022-07-10T10:15:35;101365.03;;;17.59;77.86
4085;BME280;2057;50.858;6.572;2022-07-10T10:18:02;101362.59;;;17.38;78.26
4085;BME280;2057;50.858;6.572;2022-07-10T10:20:28;101362.03;;;17.47;78.21
4085;BME280;2057;50.858;6.572;2022-07-10T10:23:09;101355.00;;;17.41;77.69
4085;BME280;2057;50.858;6.572;2022-07-10T10:25:35;101348.91;;;17.63;77.54
4085;BME280;2057;50.858;6.572;2022-07-10T10:28:02;101357.75;;;17.47;77.91
4085;BME280;2057;50.858;6.572;2022-07-10T10:30:29;101358.03;;;17.55;78.92
4085;BME280;2057;50.858;6.572;2022-07-10T10:32:55;101353.72;;;17.54;78.17
4085;BME280;2057;50.858;6.572;2022-07-10T10:35:42;101340.97;;;17.55;78.85
4085;BME280;2057;50.858;6.572;2022-07-10T10:38:15;101332.66;;;17.90;77.87
4085;BME280;2057;50.858;6.572;2022-07-10T10:40:40;101336.84;;;17.86;77.36
4085;BME280;2057;50.858;6.572;2022-07-10T10:43:23;101339.50;;;18.15;76.45
4085;BME280;2057;50.858;6.572;2022-07-10T10:45:52;101334.25;;;18.40;75.60
4085;BME280;2057;50.858;6.572;2022-07-10T10:48:18;101335.03;;;18.10;75.75
4085;BME280;2057;50.858;6.572;2022-07-10T10:50:51;101345.16;;;17.79;77.82
4085;BME280;2057;50.858;6.572;2022-07-10T11:01:05;101330.72;;;17.57;80.12
4085;BME280;2057;50.858;6.572;2022-07-10T11:03:31;101334.59;;;17.96;79.21
4085;BME280;2057;50.858;6.572;2022-07-10T11:05:56;101326.25;;;18.03;78.62
4085;BME280;2057;50.858;6.572;2022-07-10T11:08:42;101332.50;;;18.39;77.18
4085;BME280;2057;50.858;6.572;2022-07-10T11:11:37;101330.91;;;18.42;77.05
4085;BME280;2057;50.858;6.572;2022-07-10T11:14:03;101324.22;;;18.49;75.21
4085;BME280;2057;50.858;6.572;2022-07-10T11:16:31;101320.28;;;18.60;76.76
4085;BME280;2057;50.858;6.572;2022-07-10T11:18:57;101307.56;;;18.65;76.34
4085;BME280;2057;50.858;6.572;2022-07-10T11:21:25;101309.88;;;18.86;76.15
4085;BME280;2057;50.858;6.572;2022-07-10T11:27:24;101304.88;;;19.23;74.39
4085;BME280;2057;50.858;6.572;2022-07-10T11:30:01;101301.59;;;18.66;75.06
4085;BME280;2057;50.858;6.572;2022-07-10T11:32:28;101301.97;;;18.49;76.42
4085;BME280;2057;50.858;6.572;2022-07-10T11:34:54;101314.13;;;18.26;77.55
4085;BME280;2057;50.858;6.572;2022-07-10T11:37:19;101311.31;;;18.18;76.70
4085;BME280;2057;50.858;6.572;2022-07-10T11:39:45;101304.25;;;18.11;77.79
4085;BME280;2057;50.858;6.572;2022-07-10T11:42:11;101305.41;;;17.95;78.93
4085;BME280;2057;50.858;6.572;2022-07-10T11:44:36;101303.03;;;18.00;78.62
4085;BME280;2057;50.858;6.572;2022-07-10T11:47:02;101309.00;;;17.99;79.35
4085;BME280;2057;50.858;6.572;2022-07-10T11:49:28;101301.06;;;17.93;79.14
4085;BME280;2057;50.858;6.572;2022-07-10T11:52:00;101300.38;;;17.97;79.27
4085;BME280;2057;50.858;6.572;2022-07-10T11:54:26;101308.31;;;18.05;79.81
4085;BME280;2057;50.858;6.572;2022-07-10T11:56:52;101294.78;;;17.84;79.82
4085;BME280;2057;50.858;6.572;2022-07-10T11:59:23;101296.09;;;17.97;80.34
4085;BME280;2057;50.858;6.572;2022-07-10T12:01:51;101302.81;;;17.94;79.64
4085;BME280;2057;50.858;6.572;2022-07-10T12:04:21;101295.06;;;17.92;80.29
4085;BME280;2057;50.858;6.572;2022-07-10T12:06:52;101290.28;;;18.03;80.16
4085;BME280;2057;50.858;6.572;2022-07-10T12:09:20;101300.03;;;18.13;79.75
4085;BME280;2057;50.858;6.572;2022-07-10T12:12:02;101291.00;;;18.55;77.85
4085;BME280;2057;50.858;6.572;2022-07-10T12:14:28;101286.84;;;18.91;77.58
4085;BME280;2057;50.858;6.572;2022-07-10T12:16:55;101298.31;;;19.34;74.33
4085;BME280;2057;50.858;6.572;2022-07-10T12:19:29;101287.38;;;19.43;74.07
4085;BME280;2057;50.858;6.572;2022-07-10T12:21:58;101293.28;;;19.37;73.89
4085;BME280;2057;50.858;6.572;2022-07-10T12:24:24;101301.66;;;19.65;72.05
4085;BME280;2057;50.858;6.572;2022-07-10T12:26:50;101291.03;;;19.86;72.63
4085;BME280;2057;50.858;6.572;2022-07-10T12:29:25;101294.38;;;19.84;72.14
4085;BME280;2057;50.858;6.572;2022-07-10T12:31:54;101296.72;;;20.10;70.14
4085;BME280;2057;50.858;6.572;2022-07-10T12:34:42;101299.88;;;19.96;71.01
4085;BME280;2057;50.858;6.572;2022-07-10T12:37:10;101292.03;;;19.56;70.65
4085;BME280;2057;50.858;6.572;2022-07-10T12:39:36;101297.50;;;19.35;70.84
4085;BME280;2057;50.858;6.572;2022-07-10T12:42:05;101303.28;;;18.94;73.25
4085;BME280;2057;50.858;6.572;2022-07-10T12:44:44;101300.28;;;18.80;74.16
4085;BME280;2057;50.858;6.572;2022-07-10T12:47:14;101294.81;;;18.99;73.11
4085;BME280;2057;50.858;6.572;2022-07-10T12:49:57;101301.09;;;18.79;73.88
4085;BME280;2057;50.858;6.572;2022-07-10T12:52:36;101303.25;;;18.64;75.13
4085;BME280;2057;50.858;6.572;2022-07-10T12:57:58;101303.34;;;18.67;75.40
4085;BME280;2057;50.858;6.572;2022-07-10T13:00:28;101305.16;;;18.71;74.85
4085;BME280;2057;50.858;6.572;2022-07-10T13:03:18;101299.84;;;18.65;75.17
4085;BME280;2057;50.858;6.572;2022-07-10T13:05:44;101291.84;;;18.85;74.44
4085;BME280;2057;50.858;6.572;2022-07-10T13:10:37;101281.97;;;18.70;75.92
4085;BME280;2057;50.858;6.572;2022-07-10T13:13:03;101290.28;;;18.61;76.21
4085;BME280;2057;50.858;6.572;2022-07-10T13:15:29;101292.97;;;18.65;75.48
4085;BME280;2057;50.858;6.572;2022-07-10T13:17:56;101291.72;;;18.51;76.61
4085;BME280;2057;50.858;6.572;2022-07-10T13:20:21;101282.09;;;18.74;75.12
4085;BME280;2057;50.858;6.572;2022-07-10T13:22:47;101278.75;;;19.07;74.55
4085;BME280;2057;50.858;6.572;2022-07-10T13:25:12;101274.75;;;19.19;73.08
4085;BME280;2057;50.858;6.572;2022-07-10T13:27:38;101276.53;;;19.21;72.76
4085;BME280;2057;50.858;6.572;2022-07-10T13:30:05;101284.19;;;19.87;71.47
4085;BME280;2057;50.858;6.572;2022-07-10T13:32:31;101279.59;;;19.75;70.17
4085;BME280;2057;50.858;6.572;2022-07-10T13:34:56;101272.78;;;20.14;69.74
4085;BME280;2057;50.858;6.572;2022-07-10T13:37:22;101273.38;;;20.42;70.26